createdAt,value
2019-04-07T00:01:27.544Z,44.03
2019-04-07T00:04:01.765Z,40.48
2019-04-07T00:06:36.147Z,39.60
2019-04-07T00:09:10.024Z,32.50
2019-04-07T00:11:43.211Z,37.85
2019-04-07T00:14:18.522Z,35.95
2019-04-07T00:16:51.813Z,39.27
2019-04-07T00:19:25.122Z,39.03
2019-04-07T00:21:58.274Z,42.70
2019-04-07T00:24:31.469Z,37.03
2019-04-07T00:27:04.584Z,38.40
2019-04-07T00:29:37.926Z,44.03
2019-04-07T00:32:11.147Z,40.85
2019-04-07T00:34:45.721Z,43.98
2019-04-07T00:37:18.891Z,48.83
2019-04-07T00:39:52.174Z,46.73
2019-04-07T00:42:25.900Z,39.40
2019-04-07T00:44:59.724Z,54.33
2019-04-07T00:47:32.908Z,46.30
2019-04-07T00:50:07.640Z,45.92
2019-04-07T00:52:40.743Z,42.10
2019-04-07T00:55:14.213Z,38.65
2019-04-07T00:57:47.364Z,47.55
2019-04-07T01:00:22.040Z,42.33
2019-04-07T01:02:55.293Z,40.60
2019-04-07T01:05:36.654Z,32.55
2019-04-07T01:08:05.269Z,39.15
2019-04-07T01:10:38.440Z,38.85
2019-04-07T01:13:12.329Z,42.83
2019-04-07T01:15:46.019Z,43.40
2019-04-07T01:18:19.601Z,48.92
2019-04-07T01:20:53.878Z,55.38
2019-04-07T01:23:28.218Z,47.67
2019-04-07T01:26:02.183Z,47.88
2019-04-07T01:28:35.470Z,48.42
2019-04-07T01:31:08.874Z,41.40
2019-04-07T01:33:44.272Z,43.80
2019-04-07T01:36:17.523Z,44.53
2019-04-07T01:38:51.155Z,43.10
2019-04-07T01:41:51.576Z,42.78
2019-04-07T01:44:30.876Z,39.45
2019-04-07T01:47:32.081Z,46.83
2019-04-07T01:50:33.910Z,44.95
2019-04-07T01:53:22.807Z,47.67
2019-04-07T01:56:21.034Z,51.10
2019-04-07T01:59:00.578Z,53.20
2019-04-07T02:01:56.149Z,47.48
2019-04-07T02:04:38.907Z,48.35
2019-04-07T02:07:43.609Z,48.58
2019-04-07T02:10:30.625Z,51.15
2019-04-07T02:13:37.854Z,54.40
2019-04-07T02:16:42.272Z,43.02
2019-04-07T02:19:34.459Z,54.10
2019-04-07T02:22:33.324Z,54.80
2019-04-07T02:25:25.218Z,51.10
2019-04-07T02:28:20.384Z,46.23
2019-04-07T02:31:09.760Z,44.55
2019-04-07T02:34:01.774Z,47.40
2019-04-07T02:36:54.006Z,46.60
2019-04-07T02:39:58.819Z,51.48
2019-04-07T02:43:00.880Z,48.73
2019-04-07T02:45:52.390Z,48.63
2019-04-07T02:48:48.891Z,41.58
2019-04-07T02:51:33.810Z,48.42
2019-04-07T02:54:38.174Z,48.90
2019-04-07T02:57:26.850Z,59.73
2019-04-07T03:00:16.610Z,49.55
2019-04-07T03:03:01.573Z,54.63
2019-04-07T03:05:48.186Z,51.70
2019-04-07T03:08:39.628Z,49.00
2019-04-07T03:11:35.347Z,49.63
2019-04-07T03:14:43.727Z,54.15
2019-04-07T03:17:36.636Z,46.70
2019-04-07T03:20:20.057Z,51.70
2019-04-07T03:23:07.250Z,51.05
2019-04-07T03:26:05.817Z,48.33
2019-04-07T03:28:57.956Z,46.68
2019-04-07T03:32:06.346Z,39.88
2019-04-07T03:35:12.422Z,48.40
2019-04-07T03:38:04.559Z,53.65
2019-04-07T03:41:03.798Z,50.23
2019-04-07T03:43:55.778Z,49.70
2019-04-07T03:46:50.869Z,52.17
2019-04-07T03:49:29.550Z,56.33
2019-04-07T03:52:13.617Z,54.18
2019-04-07T03:55:11.367Z,49.23
2019-04-07T03:58:02.398Z,50.12
2019-04-07T04:01:33.691Z,45.90
2019-04-07T04:04:29.987Z,50.52
2019-04-07T04:07:20.628Z,52.65
2019-04-07T04:09:47.423Z,51.98
2019-04-07T04:12:31.706Z,52.27
2019-04-07T04:15:33.974Z,48.42
2019-04-07T04:18:08.116Z,46.90
2019-04-07T04:20:41.351Z,43.42
2019-04-07T04:23:14.551Z,50.28
2019-04-07T04:25:47.757Z,48.80
2019-04-07T04:28:21.865Z,54.10
2019-04-07T04:30:56.520Z,51.08
2019-04-07T04:33:31.066Z,51.98
2019-04-07T04:36:04.395Z,46.60
2019-04-07T04:38:38.522Z,48.35
2019-04-07T04:41:12.021Z,49.67
2019-04-07T04:43:45.471Z,51.83
2019-04-07T04:46:18.872Z,52.58
2019-04-07T04:48:52.496Z,52.10
2019-04-07T04:51:28.163Z,44.63
2019-04-07T04:54:03.836Z,49.45
2019-04-07T04:56:37.763Z,47.15
2019-04-07T04:59:12.839Z,44.60
2019-04-07T05:01:46.417Z,46.63
2019-04-07T05:04:20.637Z,42.35
2019-04-07T05:06:54.853Z,42.30
2019-04-07T05:09:40.216Z,45.78
2019-04-07T05:12:05.053Z,48.95
2019-04-07T05:14:38.926Z,41.15
2019-04-07T05:17:13.329Z,43.05
2019-04-07T05:19:46.825Z,48.33
2019-04-07T05:22:20.368Z,51.95
2019-04-07T05:24:53.629Z,55.10
2019-04-07T05:27:27.573Z,68.12
2019-04-07T05:30:01.193Z,61.80
2019-04-07T05:32:34.434Z,51.00
2019-04-07T05:35:08.901Z,50.45
2019-04-07T05:37:42.538Z,52.03
2019-04-07T05:40:16.766Z,49.05
2019-04-07T05:42:49.973Z,45.20
2019-04-07T05:45:23.785Z,44.75
2019-04-07T05:47:57.855Z,53.95
2019-04-07T05:50:31.819Z,68.87
2019-04-07T05:53:06.806Z,60.28
2019-04-07T05:55:39.852Z,60.15
2019-04-07T05:58:15.330Z,59.98
2019-04-07T06:00:49.402Z,51.48
2019-04-07T06:03:23.829Z,46.80
2019-04-07T06:05:57.887Z,55.70
2019-04-07T06:08:37.694Z,49.23
2019-04-07T06:11:06.232Z,48.98
2019-04-07T06:13:43.865Z,50.28
2019-04-07T06:16:15.603Z,49.25
2019-04-07T06:18:48.788Z,51.35
2019-04-07T06:21:22.225Z,50.28
2019-04-07T06:23:59.840Z,47.27
2019-04-07T06:26:34.196Z,46.10
2019-04-07T06:29:19.991Z,45.58
2019-04-07T06:31:57.735Z,49.83
2019-04-07T06:34:34.322Z,43.23
2019-04-07T06:37:10.893Z,48.02
2019-04-07T06:39:49.380Z,45.55
2019-04-07T06:42:20.880Z,49.40
2019-04-07T06:44:54.321Z,43.78
2019-04-07T06:47:32.893Z,42.90
2019-04-07T06:50:16.845Z,45.90
2019-04-07T06:53:17.563Z,43.00
2019-04-07T06:56:04.111Z,43.70
2019-04-07T06:58:59.433Z,45.48
2019-04-07T07:01:50.761Z,41.92
2019-04-07T07:04:46.584Z,38.92
2019-04-07T07:07:49.753Z,39.67
2019-04-07T07:10:54.182Z,36.98
2019-04-07T07:14:06.082Z,38.75
2019-04-07T07:17:03.972Z,44.27
2019-04-07T07:19:57.370Z,39.15
2019-04-07T07:22:55.205Z,40.98
2019-04-07T07:25:29.864Z,39.80
2019-04-07T07:28:03.344Z,45.40
2019-04-07T07:30:37.146Z,38.75
2019-04-07T07:33:11.186Z,51.65
2019-04-07T07:35:48.209Z,41.08
2019-04-07T07:38:20.354Z,39.08
2019-04-07T07:40:53.576Z,41.15
2019-04-07T07:43:29.539Z,38.40
2019-04-07T07:46:03.426Z,41.83
2019-04-07T07:48:37.732Z,40.38
2019-04-07T07:51:13.265Z,43.52
2019-04-07T07:53:46.130Z,40.55
2019-04-07T07:56:19.268Z,45.43
2019-04-07T07:58:53.014Z,36.75
2019-04-07T08:01:26.973Z,37.55
2019-04-07T08:04:00.737Z,37.40
2019-04-07T08:06:34.657Z,41.73
2019-04-07T08:09:14.911Z,38.00
2019-04-07T08:11:45.154Z,35.83
2019-04-07T08:14:18.464Z,36.68
2019-04-07T08:16:52.380Z,38.13
2019-04-07T08:19:29.376Z,43.50
2019-04-07T08:22:01.714Z,36.75
2019-04-07T08:24:36.210Z,34.70
2019-04-07T08:27:09.422Z,38.80
2019-04-07T08:29:46.219Z,30.08
2019-04-07T08:32:19.798Z,39.27
2019-04-07T08:34:54.789Z,31.05
2019-04-07T08:37:31.196Z,33.15
2019-04-07T08:40:07.268Z,38.20
2019-04-07T08:42:39.291Z,34.40
2019-04-07T08:45:16.754Z,38.78
2019-04-07T08:47:59.836Z,32.67
2019-04-07T08:50:34.385Z,27.85
2019-04-07T08:53:11.506Z,38.53
2019-04-07T08:55:54.707Z,32.45
2019-04-07T08:58:36.153Z,31.60
2019-04-07T09:01:06.399Z,34.58
2019-04-07T09:03:39.996Z,28.90
2019-04-07T09:06:13.392Z,27.75
2019-04-07T09:08:46.610Z,25.10
2019-04-07T09:11:23.268Z,22.50
2019-04-07T09:13:58.171Z,23.62
2019-04-07T09:16:52.849Z,22.32
2019-04-07T09:19:54.474Z,24.60
2019-04-07T09:23:01.730Z,20.85
2019-04-07T09:26:03.309Z,22.70
2019-04-07T09:28:55.902Z,31.70
2019-04-07T09:31:46.655Z,24.92
2019-04-07T09:34:41.469Z,22.98
2019-04-07T09:37:32.359Z,27.02
2019-04-07T09:40:30.786Z,27.82
2019-04-07T09:43:14.543Z,24.25
2019-04-07T09:46:25.038Z,27.62
2019-04-07T09:49:21.219Z,25.97
2019-04-07T09:52:14.909Z,27.07
2019-04-07T09:55:04.516Z,28.73
2019-04-07T09:57:59.514Z,22.52
2019-04-07T10:01:08.010Z,24.92
2019-04-07T10:04:00.168Z,29.63
2019-04-07T10:06:58.357Z,27.95
2019-04-07T10:10:14.323Z,24.77
2019-04-07T10:13:08.261Z,24.98
2019-04-07T10:15:59.842Z,26.68
2019-04-07T10:18:58.194Z,26.82
2019-04-07T10:22:01.617Z,26.25
2019-04-07T10:24:51.802Z,26.70
2019-04-07T10:27:56.971Z,24.02
2019-04-07T10:30:38.221Z,24.67
2019-04-07T10:33:45.976Z,23.20
2019-04-07T10:36:28.125Z,23.90
2019-04-07T10:39:16.348Z,26.42
2019-04-07T10:42:06.968Z,24.67
2019-04-07T10:45:04.818Z,25.05
2019-04-07T10:47:52.471Z,26.48
2019-04-07T10:50:53.533Z,27.45
2019-04-07T10:53:51.227Z,26.87
2019-04-07T10:56:46.496Z,23.92
2019-04-07T10:59:49.189Z,21.15
2019-04-07T11:02:45.897Z,26.85
2019-04-07T11:05:44.779Z,24.75
2019-04-07T11:08:46.624Z,27.07
2019-04-07T11:11:57.243Z,22.30
2019-04-07T11:14:55.872Z,23.22
2019-04-07T11:17:44.008Z,24.80
2019-04-07T11:20:45.631Z,24.05
2019-04-07T11:23:46.955Z,32.50
2019-04-07T11:26:51.757Z,26.45
2019-04-07T11:29:49.681Z,24.37
2019-04-07T11:32:54.340Z,23.98
2019-04-07T11:35:47.618Z,24.63
2019-04-07T11:38:49.462Z,24.98
2019-04-07T11:41:48.259Z,24.95
2019-04-07T11:44:40.242Z,25.15
2019-04-07T11:47:21.802Z,28.87
2019-04-07T11:50:04.963Z,24.75
2019-04-07T11:52:57.313Z,32.58
2019-04-07T11:55:48.577Z,21.35
2019-04-07T11:58:45.345Z,20.20
2019-04-07T12:01:41.941Z,24.35
2019-04-07T12:04:38.046Z,26.12
2019-04-07T12:07:45.825Z,23.85
2019-04-07T12:10:41.248Z,27.95
2019-04-07T12:13:32.992Z,21.20
2019-04-07T12:16:28.672Z,23.27
2019-04-07T12:19:23.843Z,21.65
2019-04-07T12:22:12.817Z,21.82
2019-04-07T12:24:59.365Z,19.45
2019-04-07T12:28:02.273Z,19.75
2019-04-07T12:31:00.512Z,22.73
2019-04-07T12:33:51.654Z,24.72
2019-04-07T12:36:41.949Z,24.85
2019-04-07T12:39:22.355Z,20.90
2019-04-07T12:42:12.339Z,23.02
2019-04-07T12:45:14.426Z,21.27
2019-04-07T12:48:04.723Z,21.35
2019-04-07T12:50:58.435Z,19.05
2019-04-07T12:53:41.277Z,17.02
2019-04-07T12:56:31.665Z,20.32
2019-04-07T12:59:14.265Z,20.25
2019-04-07T13:01:53.482Z,23.70
2019-04-07T13:04:34.316Z,25.75
2019-04-07T13:07:23.004Z,21.55
2019-04-07T13:10:14.314Z,24.75
2019-04-07T13:13:05.884Z,26.30
2019-04-07T13:16:00.283Z,24.67
2019-04-07T13:18:53.102Z,20.30
2019-04-07T13:21:38.088Z,22.82
2019-04-07T13:24:34.940Z,23.62
2019-04-07T13:27:16.997Z,24.60
2019-04-07T13:30:21.416Z,22.07
2019-04-07T13:33:26.418Z,19.12
2019-04-07T13:36:10.397Z,22.25
2019-04-07T13:38:53.049Z,24.18
2019-04-07T13:41:45.903Z,16.95
2019-04-07T13:44:24.255Z,26.17
2019-04-07T13:47:16.463Z,16.20
2019-04-07T13:50:08.664Z,20.40
2019-04-07T13:53:02.930Z,15.58
2019-04-07T13:55:59.575Z,17.12
2019-04-07T13:58:50.931Z,15.75
2019-04-07T14:01:34.693Z,18.45
2019-04-07T14:04:21.736Z,15.03
2019-04-07T14:07:16.900Z,17.62
2019-04-07T14:10:27.450Z,15.18
2019-04-07T14:13:19.747Z,15.48
2019-04-07T14:16:09.557Z,13.13
2019-04-07T14:19:00.252Z,17.15
2019-04-07T14:21:55.735Z,13.95
2019-04-07T14:24:39.517Z,17.73
2019-04-07T14:27:31.647Z,16.82
2019-04-07T14:30:22.288Z,15.15
2019-04-07T14:33:30.739Z,12.88
2019-04-07T14:36:11.639Z,12.33
2019-04-07T14:38:57.469Z,12.73
2019-04-07T14:42:01.014Z,14.83
2019-04-07T14:44:45.758Z,17.10
2019-04-07T14:47:52.325Z,16.37
2019-04-07T14:50:40.709Z,18.12
2019-04-07T14:53:33.770Z,35.92
2019-04-07T14:56:21.927Z,18.87
2019-04-07T14:59:13.210Z,16.52
2019-04-07T15:01:54.372Z,17.52
2019-04-07T15:04:35.717Z,14.83
2019-04-07T15:07:29.981Z,19.48
2019-04-07T15:10:11.845Z,19.70
2019-04-07T15:12:49.016Z,18.05
2019-04-07T15:15:23.667Z,15.68
2019-04-07T15:17:57.567Z,14.78
2019-04-07T15:20:31.159Z,15.08
2019-04-07T15:23:05.467Z,16.48
2019-04-07T15:25:43.926Z,19.62
2019-04-07T15:28:18.011Z,18.80
2019-04-07T15:30:54.423Z,22.10
2019-04-07T15:33:33.040Z,21.60
2019-04-07T15:36:08.925Z,18.57
2019-04-07T15:38:44.394Z,16.45
2019-04-07T15:41:23.876Z,21.27
2019-04-07T15:44:10.372Z,18.62
2019-04-07T15:46:53.214Z,19.23
2019-04-07T15:49:28.322Z,16.52
2019-04-07T15:52:06.736Z,20.15
2019-04-07T15:54:37.144Z,17.77
2019-04-07T15:57:11.160Z,19.35
2019-04-07T15:59:45.030Z,20.95
2019-04-07T16:02:19.271Z,17.55
2019-04-07T16:04:52.699Z,20.32
2019-04-07T16:07:26.195Z,28.10
2019-04-07T16:09:59.784Z,16.15
2019-04-07T16:12:43.510Z,19.17
2019-04-07T16:15:09.674Z,20.20
2019-04-07T16:17:43.852Z,17.37
2019-04-07T16:20:23.286Z,22.80
2019-04-07T16:22:53.296Z,20.12
2019-04-07T16:25:28.208Z,20.05
2019-04-07T16:28:02.282Z,24.45
2019-04-07T16:30:35.781Z,17.42
2019-04-07T16:33:09.898Z,19.55
2019-04-07T16:35:44.016Z,19.90
2019-04-07T16:38:18.319Z,23.38
2019-04-07T16:40:51.559Z,23.67
2019-04-07T16:43:24.813Z,22.25
2019-04-07T16:45:58.307Z,22.50
2019-04-07T16:48:36.012Z,19.82
2019-04-07T16:51:09.178Z,25.27
2019-04-07T16:53:44.407Z,23.35
2019-04-07T16:56:20.113Z,25.52
2019-04-07T16:58:53.398Z,26.12
2019-04-07T17:01:27.848Z,26.37
2019-04-07T17:04:01.273Z,24.35
2019-04-07T17:06:35.989Z,31.30
2019-04-07T17:09:23.093Z,30.50
2019-04-07T17:11:53.654Z,34.53
2019-04-07T17:14:32.145Z,47.55
2019-04-07T17:17:04.673Z,52.27
2019-04-07T17:19:38.430Z,57.98
2019-04-07T17:22:13.244Z,50.75
2019-04-07T17:24:47.719Z,50.45
2019-04-07T17:27:21.059Z,54.35
2019-04-07T17:29:55.395Z,42.62
2019-04-07T17:32:33.161Z,38.70
2019-04-07T17:35:03.890Z,44.00
2019-04-07T17:37:37.460Z,41.15
2019-04-07T17:40:17.188Z,63.20
2019-04-07T17:42:52.805Z,56.88
2019-04-07T17:45:44.080Z,56.30
2019-04-07T17:48:40.365Z,45.58
2019-04-07T17:51:19.807Z,48.28
2019-04-07T17:54:12.231Z,43.52
2019-04-07T17:57:10.011Z,56.95
2019-04-07T18:00:08.604Z,69.77
2019-04-07T18:03:04.566Z,55.05
2019-04-07T18:05:49.681Z,38.30
2019-04-07T18:08:45.957Z,33.60
2019-04-07T18:11:54.370Z,31.97
2019-04-07T18:14:45.883Z,32.15
2019-04-07T18:17:44.630Z,36.25
2019-04-07T18:20:29.385Z,39.95
2019-04-07T18:23:21.451Z,32.48
2019-04-07T18:26:15.612Z,37.08
2019-04-07T18:29:06.935Z,36.05
2019-04-07T18:31:59.002Z,41.63
2019-04-07T18:34:51.678Z,39.33
2019-04-07T18:37:44.306Z,52.10
2019-04-07T18:40:35.475Z,109.48
2019-04-07T18:43:20.522Z,132.72
2019-04-07T18:46:11.867Z,272.98
2019-04-07T18:48:59.111Z,433.27
2019-04-07T18:51:51.768Z,369.98
2019-04-07T18:54:42.578Z,347.65
2019-04-07T18:57:40.066Z,280.00
2019-04-07T19:00:35.479Z,229.68
2019-04-07T19:03:27.673Z,228.20
2019-04-07T19:06:10.511Z,210.55
2019-04-07T19:09:10.134Z,198.57
2019-04-07T19:12:04.281Z,222.48
2019-04-07T19:15:02.280Z,238.95
2019-04-07T19:17:42.034Z,214.55
2019-04-07T19:20:36.069Z,159.72
2019-04-07T19:23:32.681Z,218.60
2019-04-07T19:26:27.819Z,213.03
2019-04-07T19:29:12.820Z,230.65
2019-04-07T19:32:17.958Z,229.63
2019-04-07T19:35:09.488Z,240.85
2019-04-07T19:37:54.399Z,199.15
2019-04-07T19:40:47.107Z,139.47
2019-04-07T19:43:36.146Z,102.70
2019-04-07T19:46:34.055Z,104.27
2019-04-07T19:49:29.820Z,137.65
2019-04-07T19:52:36.900Z,137.22
2019-04-07T19:55:28.587Z,152.80
2019-04-07T19:58:23.885Z,139.52
2019-04-07T20:01:15.689Z,105.20
2019-04-07T20:04:12.846Z,99.62
2019-04-07T20:07:09.200Z,94.72
2019-04-07T20:10:01.077Z,99.00
2019-04-07T20:13:00.445Z,130.30
2019-04-07T20:15:57.708Z,154.93
2019-04-07T20:18:49.556Z,143.07
2019-04-07T20:21:39.843Z,151.10
2019-04-07T20:24:41.188Z,152.12
2019-04-07T20:27:42.799Z,143.85
2019-04-07T20:30:30.962Z,136.03
2019-04-07T20:33:16.345Z,115.72
2019-04-07T20:36:05.404Z,123.10
2019-04-07T20:38:58.446Z,124.65
2019-04-07T20:42:08.747Z,127.25
2019-04-07T20:45:06.637Z,120.72
2019-04-07T20:47:51.384Z,151.35
2019-04-07T20:50:45.741Z,157.12
2019-04-07T20:53:28.307Z,163.05
2019-04-07T20:56:35.446Z,173.22
2019-04-07T20:59:31.424Z,173.17
2019-04-07T21:02:25.149Z,182.65
2019-04-07T21:05:08.803Z,177.93
2019-04-07T21:08:04.079Z,190.32
2019-04-07T21:10:56.171Z,191.57
2019-04-07T21:13:57.389Z,201.42
2019-04-07T21:16:57.893Z,200.53
2019-04-07T21:19:45.426Z,197.40
2019-04-07T21:22:25.304Z,204.85
2019-04-07T21:25:25.195Z,198.17
2019-04-07T21:28:05.157Z,195.65
2019-04-07T21:30:46.306Z,170.02
2019-04-07T21:33:50.787Z,152.72
2019-04-07T21:36:32.216Z,158.82
2019-04-07T21:39:36.377Z,141.40
2019-04-07T21:42:48.287Z,149.80
2019-04-07T21:45:45.874Z,141.68
2019-04-07T21:48:45.435Z,133.45
2019-04-07T21:51:41.050Z,142.13
2019-04-07T21:54:23.968Z,144.07
2019-04-07T21:57:15.901Z,160.95
2019-04-07T22:00:07.906Z,151.07
2019-04-07T22:03:01.321Z,159.12
2019-04-07T22:05:51.066Z,147.78
2019-04-07T22:08:29.076Z,142.35
2019-04-07T22:11:02.196Z,153.40
2019-04-07T22:13:36.731Z,143.62
2019-04-07T22:16:10.309Z,144.60
2019-04-07T22:18:43.563Z,138.00
2019-04-07T22:21:17.040Z,141.53
2019-04-07T22:23:50.709Z,150.95
2019-04-07T22:26:23.906Z,142.70
2019-04-07T22:29:01.255Z,138.47
2019-04-07T22:31:46.125Z,128.25
2019-04-07T22:34:19.143Z,127.42
2019-04-07T22:36:52.320Z,124.12
2019-04-07T22:39:28.840Z,133.43
2019-04-07T22:42:00.836Z,120.37
2019-04-07T22:44:34.501Z,106.97
2019-04-07T22:47:07.865Z,115.62
2019-04-07T22:49:41.606Z,108.70
2019-04-07T22:52:17.440Z,133.78
2019-04-07T22:54:50.101Z,119.20
2019-04-07T22:57:23.454Z,112.17
2019-04-07T22:59:56.892Z,109.78
2019-04-07T23:02:30.310Z,111.60
2019-04-07T23:05:03.703Z,100.58
2019-04-07T23:07:37.489Z,103.90
2019-04-07T23:10:11.258Z,110.37
2019-04-07T23:12:44.759Z,111.52
2019-04-07T23:15:18.736Z,112.10
2019-04-07T23:17:51.946Z,99.42
2019-04-07T23:20:26.887Z,101.85
2019-04-07T23:23:00.483Z,104.32
2019-04-07T23:25:34.358Z,98.85
2019-04-07T23:28:08.188Z,94.07
2019-04-07T23:30:41.518Z,87.05
2019-04-07T23:33:14.711Z,95.45
2019-04-07T23:35:47.786Z,109.92
2019-04-07T23:38:21.861Z,113.47
2019-04-07T23:40:55.600Z,91.80
2019-04-07T23:43:29.172Z,98.27
2019-04-07T23:46:02.438Z,99.75
2019-04-07T23:48:35.596Z,96.95
2019-04-07T23:51:08.745Z,95.97
2019-04-07T23:54:11.226Z,103.80
2019-04-07T23:56:45.506Z,114.92
2019-04-07T23:59:18.748Z,110.22
